createdAt,value
2018-08-09T00:00:59.951Z,18.10
2018-08-09T00:03:28.731Z,18.00
2018-08-09T00:05:58.150Z,18.00
2018-08-09T00:08:27.456Z,18.00
2018-08-09T00:10:56.367Z,18.00
2018-08-09T00:16:10.208Z,17.90
2018-08-09T00:18:38.842Z,17.90
2018-08-09T00:21:08.146Z,17.90
2018-08-09T00:23:37.697Z,17.80
2018-08-09T00:26:06.664Z,17.80
2018-08-09T00:28:35.371Z,17.80
2018-08-09T00:31:04.341Z,17.80
2018-08-09T00:33:32.888Z,17.70
2018-08-09T00:36:01.914Z,17.70
2018-08-09T00:38:32.426Z,17.60
2018-08-09T00:41:01.292Z,17.60
2018-08-09T00:43:30.547Z,17.60
2018-08-09T00:46:03.984Z,17.50
2018-08-09T00:48:32.307Z,17.50
2018-08-09T00:53:46.037Z,17.50
2018-08-09T00:56:15.136Z,17.40
2018-08-09T00:58:44.218Z,17.40
2018-08-09T01:01:12.619Z,17.40
2018-08-09T01:03:41.516Z,17.40
2018-08-09T01:06:12.067Z,17.30
2018-08-09T01:08:45.702Z,17.30
2018-08-09T01:11:14.079Z,17.30
2018-08-09T01:13:42.636Z,17.20
2018-08-09T01:16:10.821Z,17.20
2018-08-09T01:18:39.115Z,17.10
2018-08-09T01:21:07.247Z,17.10
2018-08-09T01:23:35.440Z,17.10
2018-08-09T01:26:03.485Z,17.10
2018-08-09T01:28:31.392Z,17.00
2018-08-09T01:30:59.558Z,17.00
2018-08-09T01:33:27.700Z,17.00
2018-08-09T01:35:55.823Z,16.90
2018-08-09T01:38:24.006Z,16.90
2018-08-09T01:40:51.993Z,16.90
2018-08-09T01:43:25.629Z,16.90
2018-08-09T01:45:53.759Z,16.90
2018-08-09T01:48:21.950Z,16.80
2018-08-09T01:50:50.012Z,16.80
2018-08-09T01:53:18.234Z,16.80
2018-08-09T01:55:46.228Z,16.80
2018-08-09T01:58:14.431Z,16.70
2018-08-09T02:00:42.639Z,16.70
2018-08-09T02:03:10.777Z,16.70
2018-08-09T02:05:38.763Z,16.60
2018-08-09T02:08:07.030Z,16.60
2018-08-09T02:10:35.262Z,16.60
2018-08-09T02:13:04.207Z,16.70
2018-08-09T02:15:32.386Z,16.70
2018-08-09T02:18:00.500Z,16.70
2018-08-09T02:20:28.628Z,16.70
2018-08-09T02:22:56.695Z,16.60
2018-08-09T02:25:24.867Z,16.60
2018-08-09T02:27:52.827Z,16.60
2018-08-09T02:30:20.952Z,16.60
2018-08-09T02:32:49.170Z,16.50
2018-08-09T02:35:17.001Z,16.50
2018-08-09T02:37:45.549Z,16.50
2018-08-09T02:40:13.705Z,16.50
2018-08-09T02:42:41.903Z,16.50
2018-08-09T02:45:10.559Z,16.50
2018-08-09T02:47:39.137Z,16.50
2018-08-09T02:50:07.291Z,16.50
2018-08-09T02:52:35.625Z,16.50
2018-08-09T02:55:04.184Z,16.50
2018-08-09T02:57:32.354Z,16.50
2018-08-09T03:00:00.620Z,16.50
2018-08-09T03:02:28.824Z,16.40
2018-08-09T03:04:56.846Z,16.40
2018-08-09T03:07:24.784Z,16.40
2018-08-09T03:09:53.350Z,16.40
2018-08-09T03:12:21.563Z,16.40
2018-08-09T03:14:49.695Z,16.40
2018-08-09T03:17:17.863Z,16.40
2018-08-09T03:19:45.684Z,16.30
2018-08-09T03:22:14.020Z,16.30
2018-08-09T03:24:42.135Z,16.30
2018-08-09T03:27:10.498Z,16.20
2018-08-09T03:29:38.708Z,16.20
2018-08-09T03:32:06.656Z,16.10
2018-08-09T03:34:34.854Z,16.10
2018-08-09T03:37:03.231Z,16.10
2018-08-09T03:39:31.327Z,16.10
2018-08-09T03:41:59.427Z,16.10
2018-08-09T03:44:27.667Z,16.10
2018-08-09T03:46:56.449Z,16.10
2018-08-09T03:49:24.596Z,16.00
2018-08-09T03:51:52.730Z,16.10
2018-08-09T03:54:20.950Z,16.10
2018-08-09T03:56:48.904Z,16.10
2018-08-09T03:59:17.478Z,16.10
2018-08-09T04:01:45.347Z,16.10
2018-08-09T04:04:13.227Z,16.00
2018-08-09T04:06:41.479Z,16.00
2018-08-09T04:09:15.990Z,16.00
2018-08-09T04:11:44.165Z,16.00
2018-08-09T04:14:12.690Z,16.00
2018-08-09T04:16:41.197Z,16.00
2018-08-09T04:19:09.764Z,16.00
2018-08-09T04:21:37.619Z,16.10
2018-08-09T04:24:05.946Z,16.20
2018-08-09T04:26:35.157Z,16.20
2018-08-09T04:29:03.446Z,16.30
2018-08-09T04:31:31.329Z,16.30
2018-08-09T04:34:00.296Z,16.40
2018-08-09T04:36:28.755Z,16.50
2018-08-09T04:38:56.728Z,16.50
2018-08-09T04:41:24.843Z,16.60
2018-08-09T04:43:53.062Z,16.70
2018-08-09T04:46:21.654Z,16.80
2018-08-09T04:48:49.860Z,16.90
2018-08-09T04:51:17.963Z,17.00
2018-08-09T04:53:46.056Z,17.10
2018-08-09T04:56:14.450Z,17.20
2018-08-09T04:58:42.862Z,17.30
2018-08-09T05:01:11.106Z,17.40
2018-08-09T05:03:39.351Z,17.50
2018-08-09T05:06:07.564Z,17.60
2018-08-09T05:08:36.364Z,17.70
2018-08-09T05:11:04.809Z,17.90
2018-08-09T05:13:32.896Z,18.00
2018-08-09T05:16:01.251Z,18.10
2018-08-09T05:18:29.272Z,18.20
2018-08-09T05:20:57.748Z,18.30
2018-08-09T05:23:26.084Z,18.40
2018-08-09T05:25:54.314Z,18.50
2018-08-09T05:28:23.038Z,18.60
2018-08-09T05:30:51.494Z,18.80
2018-08-09T05:33:19.684Z,18.90
2018-08-09T05:35:48.306Z,19.10
2018-08-09T05:38:16.809Z,19.20
2018-08-09T05:40:45.116Z,19.40
2018-08-09T05:43:13.190Z,19.50
2018-08-09T05:45:41.598Z,19.60
2018-08-09T05:48:09.845Z,19.80
2018-08-09T05:50:38.536Z,19.90
2018-08-09T05:53:07.459Z,20.10
2018-08-09T05:55:35.537Z,20.20
2018-08-09T05:58:03.691Z,20.30
2018-08-09T06:00:31.599Z,20.50
2018-08-09T06:03:00.016Z,20.70
2018-08-09T06:05:27.984Z,20.90
2018-08-09T06:07:56.010Z,21.00
2018-08-09T06:10:24.220Z,21.20
2018-08-09T06:12:52.369Z,21.40
2018-08-09T06:15:20.254Z,21.50
2018-08-09T06:17:48.517Z,21.60
2018-08-09T06:20:16.737Z,21.80
2018-08-09T06:22:45.033Z,21.90
2018-08-09T06:25:13.319Z,22.00
2018-08-09T06:27:41.733Z,22.10
2018-08-09T06:30:10.877Z,22.20
2018-08-09T06:32:39.945Z,22.40
2018-08-09T06:35:08.649Z,22.50
2018-08-09T06:37:37.025Z,22.70
2018-08-09T06:40:06.291Z,22.80
2018-08-09T06:42:34.894Z,23.00
2018-08-09T06:45:02.992Z,23.10
2018-08-09T06:47:31.144Z,23.20
2018-08-09T06:49:59.528Z,23.40
2018-08-09T06:52:27.800Z,23.60
2018-08-09T06:54:56.045Z,23.70
2018-08-09T06:57:24.194Z,23.80
2018-08-09T06:59:53.064Z,24.00
2018-08-09T07:02:21.389Z,24.10
2018-08-09T07:10:23.008Z,24.60
2018-08-09T07:12:51.537Z,24.70
2018-08-09T07:15:24.004Z,24.80
2018-08-09T07:17:52.255Z,25.00
2018-08-09T07:20:22.581Z,25.10
2018-08-09T07:22:58.267Z,25.20
2018-08-09T07:25:26.507Z,25.40
2018-08-09T07:27:55.390Z,25.50
2018-08-09T07:30:32.514Z,25.60
2018-08-09T07:33:01.466Z,25.80
2018-08-09T07:35:30.604Z,25.90
2018-08-09T07:37:58.974Z,26.00
2018-08-09T07:40:26.915Z,26.20
2018-08-09T07:42:58.533Z,26.30
2018-08-09T07:45:34.607Z,26.40
2018-08-09T07:48:02.729Z,26.60
2018-08-09T07:50:31.266Z,26.70
2018-08-09T07:53:00.499Z,26.80
2018-08-09T07:55:29.394Z,26.90
2018-08-09T07:57:57.454Z,27.10
2018-08-09T08:00:25.618Z,27.20
2018-08-09T08:02:54.545Z,27.30
2018-08-09T08:05:22.976Z,27.40
2018-08-09T08:07:51.736Z,27.50
2018-08-09T08:10:20.010Z,27.70
2018-08-09T08:12:48.928Z,27.90
2018-08-09T08:15:17.940Z,28.00
2018-08-09T08:17:47.866Z,28.10
2018-08-09T08:20:16.779Z,28.20
2018-08-09T08:22:46.125Z,28.30
2018-08-09T08:25:15.386Z,28.40
2018-08-09T08:27:44.523Z,28.50
2018-08-09T08:30:14.362Z,28.60
2018-08-09T08:32:43.674Z,28.60
2018-08-09T08:35:13.100Z,28.70
2018-08-09T08:37:42.199Z,28.90
2018-08-09T08:43:38.961Z,29.20
2018-08-09T09:16:07.704Z,30.80
2018-08-09T09:22:14.434Z,31.00
2018-08-09T09:25:11.794Z,31.20
2018-08-09T09:28:05.026Z,31.30
2018-08-09T09:30:47.802Z,31.40
2018-08-09T09:33:16.785Z,31.50
2018-08-09T09:36:05.755Z,31.50
2018-08-09T09:38:34.811Z,31.50
2018-08-09T09:41:04.683Z,31.60
2018-08-09T09:43:33.814Z,31.70
2018-08-09T09:46:02.804Z,31.80
2018-08-09T09:48:31.712Z,31.80
2018-08-09T09:51:00.420Z,31.80
2018-08-09T09:53:29.178Z,31.90
2018-08-09T09:55:59.423Z,31.90
2018-08-09T09:58:28.601Z,31.90
2018-08-09T10:01:03.195Z,31.90
2018-08-09T10:03:32.328Z,31.90
2018-08-09T10:06:01.246Z,32.00
2018-08-09T10:08:30.187Z,32.10
2018-08-09T10:10:59.173Z,32.20
2018-08-09T10:13:28.800Z,32.30
2018-08-09T10:15:57.634Z,32.40
2018-08-09T10:18:26.557Z,32.20
2018-08-09T10:20:55.884Z,32.10
2018-08-09T10:23:24.781Z,32.20
2018-08-09T10:25:54.037Z,32.40
2018-08-09T10:28:23.237Z,32.40
2018-08-09T10:30:52.289Z,32.50
2018-08-09T10:33:21.066Z,32.50
2018-08-09T10:35:49.888Z,32.50
2018-08-09T10:38:18.476Z,32.50
2018-08-09T10:40:47.301Z,32.40
2018-08-09T10:43:15.963Z,32.40
2018-08-09T10:45:44.791Z,32.40
2018-08-09T10:48:13.763Z,32.40
2018-08-09T10:50:42.374Z,32.20
2018-08-09T10:53:11.187Z,32.10
2018-08-09T10:55:40.178Z,32.10
2018-08-09T10:58:08.751Z,32.10
2018-08-09T11:00:37.524Z,32.10
2018-08-09T11:03:06.511Z,32.10
2018-08-09T11:05:35.099Z,32.10
2018-08-09T11:08:04.033Z,32.10
2018-08-09T11:10:32.755Z,32.20
2018-08-09T11:13:01.890Z,32.40
2018-08-09T11:15:30.554Z,32.40
2018-08-09T11:17:59.561Z,32.40
2018-08-09T11:20:28.369Z,32.40
2018-08-09T11:22:57.207Z,32.40
2018-08-09T11:25:25.782Z,32.50
2018-08-09T11:27:55.032Z,32.50
2018-08-09T11:30:24.448Z,32.60
2018-08-09T11:32:53.879Z,32.60
2018-08-09T11:35:23.629Z,32.50
2018-08-09T11:37:52.849Z,32.50
2018-08-09T11:40:22.371Z,32.50
2018-08-09T11:42:53.122Z,32.60
2018-08-09T11:45:22.813Z,32.60
2018-08-09T11:47:52.258Z,32.70
2018-08-09T11:50:22.700Z,32.80
2018-08-09T11:52:51.783Z,32.90
2018-08-09T11:55:21.490Z,33.00
2018-08-09T11:57:51.197Z,33.20
2018-08-09T12:00:20.381Z,33.30
2018-08-09T12:02:50.545Z,33.50
2018-08-09T12:06:01.701Z,33.60
2018-08-09T12:08:32.241Z,33.70
2018-08-09T12:11:02.378Z,33.80
2018-08-09T12:13:48.024Z,33.80
2018-08-09T12:16:32.834Z,33.90
2018-08-09T12:19:18.569Z,34.00
2018-08-09T12:22:02.327Z,34.00
2018-08-09T12:24:47.199Z,33.80
2018-08-09T12:27:31.273Z,33.50
2018-08-09T12:30:20.028Z,33.20
2018-08-09T12:33:03.769Z,33.20
2018-08-09T12:36:16.258Z,33.30
2018-08-09T12:42:16.244Z,33.50
2018-08-09T12:45:00.304Z,33.70
2018-08-09T12:47:29.056Z,33.70
2018-08-09T12:50:15.932Z,33.50
2018-08-09T12:53:03.679Z,33.20
2018-08-09T12:55:44.841Z,33.20
2018-08-09T12:58:19.839Z,33.20
2018-08-09T13:03:33.700Z,33.10
2018-08-09T13:06:10.352Z,33.00
2018-08-09T13:08:53.005Z,32.90
2018-08-09T13:11:29.520Z,32.80
2018-08-09T13:14:25.529Z,32.70
2018-08-09T13:17:27.962Z,32.80
2018-08-09T13:19:56.901Z,32.80
2018-08-09T13:22:29.011Z,32.90
2018-08-09T13:25:13.919Z,33.00
2018-08-09T13:27:57.776Z,33.00
2018-08-09T13:30:48.008Z,33.00
2018-08-09T13:33:32.730Z,33.00
2018-08-09T13:36:19.010Z,33.10
2018-08-09T13:39:02.633Z,33.20
2018-08-09T13:41:31.175Z,33.20
2018-08-09T13:44:14.456Z,33.10
2018-08-09T13:47:07.029Z,33.10
2018-08-09T13:49:36.242Z,32.90
2018-08-09T13:52:05.185Z,32.70
2018-08-09T13:54:35.058Z,32.50
2018-08-09T13:57:03.618Z,32.40
2018-08-09T13:59:32.725Z,32.40
2018-08-09T14:02:02.614Z,32.50
2018-08-09T14:04:31.764Z,32.50
2018-08-09T14:07:00.753Z,32.60
2018-08-09T14:09:29.639Z,32.60
2018-08-09T14:11:58.622Z,32.50
2018-08-09T14:14:27.595Z,32.30
2018-08-09T14:16:56.632Z,32.10
2018-08-09T14:19:25.374Z,32.10
2018-08-09T14:21:54.111Z,32.10
2018-08-09T14:24:24.435Z,32.00
2018-08-09T14:26:53.212Z,32.00
2018-08-09T14:29:22.136Z,32.00
2018-08-09T14:31:52.124Z,32.10
2018-08-09T14:34:20.947Z,32.20
2018-08-09T14:36:49.733Z,32.30
2018-08-09T14:39:18.734Z,32.40
2018-08-09T14:41:47.666Z,32.40
2018-08-09T14:44:16.384Z,32.40
2018-08-09T14:46:45.395Z,32.20
2018-08-09T14:49:14.917Z,32.10
2018-08-09T14:51:44.074Z,31.90
2018-08-09T14:54:14.126Z,31.80
2018-08-09T14:56:43.458Z,31.70
2018-08-09T14:59:12.764Z,31.70
2018-08-09T15:01:41.645Z,31.70
2018-08-09T15:04:10.684Z,31.60
2018-08-09T15:06:39.573Z,31.60
2018-08-09T15:09:10.348Z,31.60
2018-08-09T15:11:39.329Z,31.60
2018-08-09T15:14:09.342Z,31.70
2018-08-09T15:16:38.469Z,31.80
2018-08-09T15:19:07.984Z,32.00
2018-08-09T15:21:36.958Z,32.00
2018-08-09T15:24:06.044Z,32.10
2018-08-09T15:26:34.936Z,32.10
2018-08-09T15:29:04.166Z,32.20
2018-08-09T15:31:33.937Z,32.20
2018-08-09T15:34:04.179Z,32.10
2018-08-09T15:36:34.132Z,32.20
2018-08-09T15:39:05.376Z,32.20
2018-08-09T15:41:34.945Z,32.10
2018-08-09T15:44:04.871Z,32.00
2018-08-09T15:46:35.990Z,31.70
2018-08-09T15:49:05.318Z,31.40
2018-08-09T15:51:35.098Z,31.30
2018-08-09T15:56:57.556Z,31.10
2018-08-09T15:59:27.914Z,31.00
2018-08-09T16:01:58.025Z,30.90
2018-08-09T16:04:27.571Z,30.80
2018-08-09T16:06:57.390Z,30.70
2018-08-09T16:09:26.952Z,30.60
2018-08-09T16:11:56.292Z,30.50
2018-08-09T16:14:25.885Z,30.30
2018-08-09T16:16:55.275Z,30.30
2018-08-09T16:19:25.169Z,30.20
2018-08-09T16:21:54.925Z,30.10
2018-08-09T16:24:24.222Z,30.00
2018-08-09T16:26:54.237Z,30.00
2018-08-09T16:29:24.243Z,29.90
2018-08-09T16:31:53.527Z,29.80
2018-08-09T16:34:22.874Z,29.80
2018-08-09T16:36:51.612Z,29.80
2018-08-09T16:39:20.902Z,29.70
2018-08-09T16:41:50.037Z,29.60
2018-08-09T16:44:19.118Z,29.50
2018-08-09T16:46:48.100Z,29.50
2018-08-09T16:49:16.930Z,29.50
2018-08-09T16:51:45.883Z,29.50
2018-08-09T16:54:14.590Z,29.50
2018-08-09T16:56:43.607Z,29.40
2018-08-09T16:59:12.756Z,29.40
2018-08-09T17:01:41.583Z,29.30
2018-08-09T17:04:11.042Z,29.30
2018-08-09T17:06:41.981Z,29.30
2018-08-09T17:09:15.178Z,29.20
2018-08-09T17:11:46.345Z,29.10
2018-08-09T17:14:16.804Z,29.00
2018-08-09T17:16:46.908Z,29.00
2018-08-09T17:19:17.229Z,28.90
2018-08-09T17:21:46.907Z,28.80
2018-08-09T17:24:17.041Z,28.80
2018-08-09T17:26:46.591Z,28.70
2018-08-09T17:29:16.437Z,28.70
2018-08-09T17:31:46.192Z,28.60
2018-08-09T17:34:15.942Z,28.50
2018-08-09T17:39:32.069Z,28.40
2018-08-09T17:42:02.198Z,28.40
2018-08-09T17:44:37.072Z,28.30
2018-08-09T17:47:06.525Z,28.20
2018-08-09T17:49:36.335Z,28.10
2018-08-09T17:52:06.110Z,28.00
2018-08-09T17:54:35.245Z,27.80
2018-08-09T17:57:04.702Z,27.70
2018-08-09T17:59:34.750Z,27.60
2018-08-09T18:02:03.613Z,27.50
2018-08-09T18:04:32.610Z,27.30
2018-08-09T18:07:01.733Z,27.20
2018-08-09T18:09:30.715Z,27.10
2018-08-09T18:12:05.930Z,27.00
2018-08-09T18:14:34.723Z,26.90
2018-08-09T18:17:03.484Z,26.70
2018-08-09T18:19:32.393Z,26.60
2018-08-09T18:22:01.163Z,26.40
2018-08-09T18:24:30.078Z,26.20
2018-08-09T18:26:59.099Z,26.10
2018-08-09T18:29:28.044Z,25.90
2018-08-09T18:31:57.087Z,25.80
2018-08-09T18:34:26.498Z,25.60
2018-08-09T18:36:55.320Z,25.50
2018-08-09T18:39:24.086Z,25.40
2018-08-09T18:41:52.885Z,25.20
2018-08-09T18:44:21.652Z,25.20
2018-08-09T18:46:50.567Z,25.00
2018-08-09T18:49:20.412Z,24.80
2018-08-09T18:51:49.797Z,24.70
2018-08-09T18:54:20.861Z,24.60
2018-08-09T18:59:42.662Z,24.40
2018-08-09T19:02:11.647Z,24.40
2018-08-09T19:04:41.023Z,24.40
2018-08-09T19:07:10.867Z,24.30
2018-08-09T19:09:40.294Z,24.50
2018-08-09T19:12:09.181Z,24.80
2018-08-09T19:14:39.271Z,25.10
2018-08-09T19:17:08.345Z,25.30
2018-08-09T19:19:37.326Z,25.40
2018-08-09T19:22:06.480Z,25.50
2018-08-09T19:24:36.000Z,25.50
2018-08-09T19:27:05.185Z,25.50
2018-08-09T19:29:34.382Z,25.40
2018-08-09T19:32:03.508Z,25.40
2018-08-09T19:34:37.609Z,25.40
2018-08-09T19:37:20.004Z,25.40
2018-08-09T19:39:49.413Z,25.30
2018-08-09T19:42:18.906Z,25.20
2018-08-09T19:44:48.762Z,25.20
2018-08-09T19:50:14.778Z,25.00
2018-08-09T19:52:45.202Z,24.90
2018-08-09T19:57:56.731Z,24.70
2018-08-09T20:00:29.173Z,24.60
2018-08-09T20:02:59.464Z,24.50
2018-08-09T20:05:29.453Z,24.40
2018-08-09T20:07:59.558Z,24.20
2018-08-09T20:10:28.964Z,24.00
2018-08-09T20:12:58.801Z,23.90
2018-08-09T20:15:28.928Z,23.80
2018-08-09T20:17:58.483Z,23.60
2018-08-09T20:20:29.416Z,23.50
2018-08-09T20:22:58.797Z,23.40
2018-08-09T20:25:28.763Z,23.20
2018-08-09T20:27:58.931Z,23.10
2018-08-09T20:30:29.931Z,22.90
2018-08-09T20:33:00.838Z,22.70
2018-08-09T20:35:30.663Z,22.60
2018-08-09T20:37:59.635Z,22.50
2018-08-09T20:40:32.382Z,22.30
2018-08-09T20:43:01.427Z,22.20
2018-08-09T20:48:12.393Z,21.90
2018-08-09T20:50:44.341Z,21.80
2018-08-09T20:56:00.326Z,21.70
2018-08-09T20:58:33.136Z,21.70
2018-08-09T21:01:15.598Z,21.70
2018-08-09T21:03:46.308Z,21.70
2018-08-09T21:09:11.715Z,21.80
2018-08-09T21:11:44.588Z,21.80
2018-08-09T21:14:17.229Z,21.90
2018-08-09T21:16:55.094Z,22.00
2018-08-09T21:22:25.045Z,22.30
2018-08-09T21:24:57.145Z,22.40
2018-08-09T21:30:25.461Z,22.50
2018-08-09T21:32:59.890Z,22.50
2018-08-09T21:35:33.040Z,22.50
2018-08-09T21:38:14.860Z,22.50
2018-08-09T21:40:44.834Z,22.50
2018-08-09T21:43:15.916Z,22.40
2018-08-09T21:46:01.206Z,22.30
2018-08-09T21:48:35.921Z,22.30
2018-08-09T21:51:05.501Z,22.20
2018-08-09T21:53:40.521Z,22.20
2018-08-09T21:56:14.251Z,22.10
2018-08-09T22:04:29.204Z,21.90
2018-08-09T22:07:05.160Z,21.90
2018-08-09T22:09:44.684Z,21.80
2018-08-09T22:12:23.749Z,21.80
2018-08-09T22:17:53.626Z,21.80
2018-08-09T22:23:19.163Z,21.70
2018-08-09T22:25:48.844Z,21.70
2018-08-09T22:28:43.847Z,21.60
2018-08-09T22:37:06.686Z,21.30
2018-08-09T22:39:35.339Z,21.20
2018-08-09T22:42:08.522Z,21.10
2018-08-09T22:58:15.353Z,20.60
2018-08-09T23:17:54.155Z,20.30
2018-08-09T23:20:23.972Z,20.30
2018-08-09T23:22:55.024Z,20.20
2018-08-09T23:25:24.052Z,20.10
2018-08-09T23:28:02.246Z,20.10
2018-08-09T23:33:30.306Z,19.90
2018-08-09T23:36:04.197Z,19.80
2018-08-09T23:44:04.359Z,19.60
2018-08-09T23:49:24.788Z,19.60
2018-08-09T23:54:28.190Z,19.50
2018-08-09T23:56:57.001Z,19.50
2018-08-09T23:59:26.058Z,19.50
